sensor_id;sensor_type;location;lat;lon;timestamp;pressure;altitude;pressure_sealevel;temperature;humidity
41467;BME280;72625;53.700;19.958;2023-11-21T00:02:43;99657.38;;;0.41;87.06
41467;BME280;72625;53.700;19.958;2023-11-21T00:07:47;99659.48;;;0.40;87.02
41467;BME280;72625;53.700;19.958;2023-11-21T00:12:53;99670.35;;;0.43;86.83
41467;BME280;72625;53.700;19.958;2023-11-21T00:23:31;99675.96;;;0.36;84.11
41467;BME280;72625;53.700;19.958;2023-11-21T00:28:34;99684.10;;;0.34;85.56
41467;BME280;72625;53.700;19.958;2023-11-21T00:33:45;99688.48;;;0.37;85.18
41467;BME280;72625;53.700;19.958;2023-11-21T00:38:47;99687.73;;;0.42;85.82
41467;BME280;72625;53.700;19.958;2023-11-21T00:43:50;99689.34;;;0.47;86.13
41467;BME280;72625;53.700;19.958;2023-11-21T00:48:56;99686.05;;;0.55;86.76
41467;BME280;72625;53.700;19.958;2023-11-21T00:59:25;99692.20;;;0.54;86.42
41467;BME280;72625;53.700;19.958;2023-11-21T01:04:30;99687.52;;;0.55;87.05
41467;BME280;72625;53.700;19.958;2023-11-21T01:09:34;99689.84;;;0.56;86.75
41467;BME280;72625;53.700;19.958;2023-11-21T01:14:36;99695.13;;;0.54;85.95
41467;BME280;72625;53.700;19.958;2023-11-21T01:19:39;99693.23;;;0.56;85.94
41467;BME280;72625;53.700;19.958;2023-11-21T01:24:49;99696.13;;;0.60;86.35
41467;BME280;72625;53.700;19.958;2023-11-21T01:29:52;99698.85;;;0.58;86.03
41467;BME280;72625;53.700;19.958;2023-11-21T01:34:55;99701.59;;;0.57;86.16
41467;BME280;72625;53.700;19.958;2023-11-21T01:39:58;99708.42;;;0.50;85.12
41467;BME280;72625;53.700;19.958;2023-11-21T01:45:02;99713.34;;;0.43;84.89
41467;BME280;72625;53.700;19.958;2023-11-21T01:50:16;99715.66;;;0.41;85.22
41467;BME280;72625;53.700;19.958;2023-11-21T01:55:20;99715.54;;;0.40;84.46
41467;BME280;72625;53.700;19.958;2023-11-21T02:00:30;99720.77;;;0.42;84.66
41467;BME280;72625;53.700;19.958;2023-11-21T02:06:02;99724.23;;;0.43;84.51
41467;BME280;72625;53.700;19.958;2023-11-21T02:11:07;99727.11;;;0.41;84.66
41467;BME280;72625;53.700;19.958;2023-11-21T02:16:12;99724.96;;;0.47;84.81
41467;BME280;72625;53.700;19.958;2023-11-21T02:21:18;99719.27;;;0.49;84.51
41467;BME280;72625;53.700;19.958;2023-11-21T02:26:21;99721.45;;;0.48;83.83
41467;BME280;72625;53.700;19.958;2023-11-21T02:31:35;99729.60;;;0.47;84.32
41467;BME280;72625;53.700;19.958;2023-11-21T02:36:39;99734.86;;;0.46;83.90
41467;BME280;72625;53.700;19.958;2023-11-21T02:41:43;99741.89;;;0.42;84.12
41467;BME280;72625;53.700;19.958;2023-11-21T02:46:56;99749.77;;;0.38;84.19
41467;BME280;72625;53.700;19.958;2023-11-21T02:52:32;99758.27;;;0.39;84.43
41467;BME280;72625;53.700;19.958;2023-11-21T02:57:35;99753.89;;;0.43;84.25
41467;BME280;72625;53.700;19.958;2023-11-21T03:02:38;99756.06;;;0.47;84.01
41467;BME280;72625;53.700;19.958;2023-11-21T03:07:41;99764.27;;;0.46;83.50
41467;BME280;72625;53.700;19.958;2023-11-21T03:12:44;99766.09;;;0.44;83.56
41467;BME280;72625;53.700;19.958;2023-11-21T03:17:47;99771.81;;;0.38;83.56
41467;BME280;72625;53.700;19.958;2023-11-21T03:22:51;99775.27;;;0.40;83.66
41467;BME280;72625;53.700;19.958;2023-11-21T03:27:54;99775.09;;;0.43;83.21
41467;BME280;72625;53.700;19.958;2023-11-21T03:32:58;99777.48;;;0.43;83.18
41467;BME280;72625;53.700;19.958;2023-11-21T03:38:01;99772.45;;;0.44;83.19
41467;BME280;72625;53.700;19.958;2023-11-21T03:43:03;99774.18;;;0.40;83.38
41467;BME280;72625;53.700;19.958;2023-11-21T03:48:06;99784.27;;;0.39;82.16
41467;BME280;72625;53.700;19.958;2023-11-21T03:53:09;99785.89;;;0.39;82.99
41467;BME280;72625;53.700;19.958;2023-11-21T03:58:11;99791.49;;;0.44;83.34
41467;BME280;72625;53.700;19.958;2023-11-21T04:03:14;99795.63;;;0.47;83.11
41467;BME280;72625;53.700;19.958;2023-11-21T04:08:17;99796.83;;;0.50;83.01
41467;BME280;72625;53.700;19.958;2023-11-21T04:13:19;99794.34;;;0.52;83.32
41467;BME280;72625;53.700;19.958;2023-11-21T04:18:22;99805.79;;;0.52;83.35
41467;BME280;72625;53.700;19.958;2023-11-21T04:23:28;99811.34;;;0.47;82.68
41467;BME280;72625;53.700;19.958;2023-11-21T04:28:32;99815.04;;;0.42;82.54
41467;BME280;72625;53.700;19.958;2023-11-21T04:33:38;99814.02;;;0.38;82.99
41467;BME280;72625;53.700;19.958;2023-11-21T04:38:40;99819.29;;;0.36;82.30
41467;BME280;72625;53.700;19.958;2023-11-21T04:43:45;99825.65;;;0.35;82.03
41467;BME280;72625;53.700;19.958;2023-11-21T04:48:50;99830.30;;;0.34;82.57
41467;BME280;72625;53.700;19.958;2023-11-21T04:53:55;99838.16;;;0.30;82.09
41467;BME280;72625;53.700;19.958;2023-11-21T04:58:58;99841.54;;;0.26;81.36
41467;BME280;72625;53.700;19.958;2023-11-21T05:04:29;99841.63;;;0.24;81.88
41467;BME280;72625;53.700;19.958;2023-11-21T05:10:39;99846.24;;;0.26;81.74
41467;BME280;72625;53.700;19.958;2023-11-21T05:21:20;99856.54;;;0.33;80.77
41467;BME280;72625;53.700;19.958;2023-11-21T05:26:26;99860.75;;;0.31;80.89
41467;BME280;72625;53.700;19.958;2023-11-21T05:31:31;99873.84;;;0.30;81.65
41467;BME280;72625;53.700;19.958;2023-11-21T05:36:33;99874.04;;;0.32;81.43
41467;BME280;72625;53.700;19.958;2023-11-21T05:41:39;99880.18;;;0.30;81.04
41467;BME280;72625;53.700;19.958;2023-11-21T05:46:41;99888.01;;;0.29;80.41
41467;BME280;72625;53.700;19.958;2023-11-21T05:51:45;99899.52;;;0.24;81.12
41467;BME280;72625;53.700;19.958;2023-11-21T05:56:48;99912.31;;;0.28;81.15
41467;BME280;72625;53.700;19.958;2023-11-21T06:01:51;99911.60;;;0.30;81.04
41467;BME280;72625;53.700;19.958;2023-11-21T06:07:14;99915.47;;;0.30;81.17
41467;BME280;72625;53.700;19.958;2023-11-21T06:12:17;99925.72;;;0.27;81.27
41467;BME280;72625;53.700;19.958;2023-11-21T06:17:19;99934.30;;;0.27;81.44
41467;BME280;72625;53.700;19.958;2023-11-21T06:22:22;99939.95;;;0.27;80.89
41467;BME280;72625;53.700;19.958;2023-11-21T06:27:24;99946.77;;;0.27;80.98
41467;BME280;72625;53.700;19.958;2023-11-21T06:32:27;99961.59;;;0.31;81.09
41467;BME280;72625;53.700;19.958;2023-11-21T06:37:32;99977.59;;;0.33;80.96
41467;BME280;72625;53.700;19.958;2023-11-21T06:42:35;99984.64;;;0.31;80.79
41467;BME280;72625;53.700;19.958;2023-11-21T06:47:40;99991.00;;;0.31;80.82
41467;BME280;72625;53.700;19.958;2023-11-21T06:52:46;99997.86;;;0.33;80.32
41467;BME280;72625;53.700;19.958;2023-11-21T06:57:48;100001.27;;;0.35;80.47
41467;BME280;72625;53.700;19.958;2023-11-21T07:02:51;100006.98;;;0.36;80.06
41467;BME280;72625;53.700;19.958;2023-11-21T07:07:53;100014.02;;;0.36;80.56
41467;BME280;72625;53.700;19.958;2023-11-21T07:12:56;100018.30;;;0.33;80.71
41467;BME280;72625;53.700;19.958;2023-11-21T07:17:59;100026.80;;;0.35;80.25
41467;BME280;72625;53.700;19.958;2023-11-21T07:23:01;100030.23;;;0.39;80.58
41467;BME280;72625;53.700;19.958;2023-11-21T09:59:37;100104.91;;;2.39;71.14
41467;BME280;72625;53.700;19.958;2023-11-21T10:04:41;100118.80;;;2.18;71.63
41467;BME280;72625;53.700;19.958;2023-11-21T10:09:46;100126.57;;;2.06;71.86
41467;BME280;72625;53.700;19.958;2023-11-21T10:14:52;100127.74;;;1.93;71.91
41467;BME280;72625;53.700;19.958;2023-11-21T10:19:59;100136.90;;;1.74;71.42
41467;BME280;72625;53.700;19.958;2023-11-21T10:25:03;100139.06;;;1.55;71.17
41467;BME280;72625;53.700;19.958;2023-11-21T10:30:11;100136.83;;;1.38;70.91
41467;BME280;72625;53.700;19.958;2023-11-21T10:35:15;100137.18;;;1.28;71.39
41467;BME280;72625;53.700;19.958;2023-11-21T10:40:19;100142.74;;;1.28;71.21
41467;BME280;72625;53.700;19.958;2023-11-21T10:45:23;100140.05;;;1.19;71.06
41467;BME280;72625;53.700;19.958;2023-11-21T10:50:27;100139.33;;;1.14;70.86
41467;BME280;72625;53.700;19.958;2023-11-21T10:55:32;100135.61;;;1.14;71.09
41467;BME280;72625;53.700;19.958;2023-11-21T11:00:37;100139.23;;;1.25;71.76
41467;BME280;72625;53.700;19.958;2023-11-21T11:05:44;100143.08;;;1.35;71.70
41467;BME280;72625;53.700;19.958;2023-11-21T11:10:59;100140.90;;;1.36;71.15
41467;BME280;72625;53.700;19.958;2023-11-21T11:16:10;100142.14;;;1.35;71.39
41467;BME280;72625;53.700;19.958;2023-11-21T11:27:23;100145.50;;;0.99;70.57
41467;BME280;72625;53.700;19.958;2023-11-21T11:38:17;100160.15;;;0.46;70.59
41467;BME280;72625;53.700;19.958;2023-11-21T11:43:27;100165.27;;;0.33;70.89
41467;BME280;72625;53.700;19.958;2023-11-21T11:48:40;100166.52;;;0.16;70.91
41467;BME280;72625;53.700;19.958;2023-11-21T11:53:46;100168.83;;;0.05;70.83
41467;BME280;72625;53.700;19.958;2023-11-21T11:58:51;100182.69;;;0.00;71.09
41467;BME280;72625;53.700;19.958;2023-11-21T12:09:26;100197.04;;;-0.08;71.55
41467;BME280;72625;53.700;19.958;2023-11-21T12:14:30;100195.17;;;-0.08;71.68
41467;BME280;72625;53.700;19.958;2023-11-21T12:19:38;100193.98;;;-0.01;71.66
41467;BME280;72625;53.700;19.958;2023-11-21T12:24:42;100201.23;;;0.06;71.27
41467;BME280;72625;53.700;19.958;2023-11-21T12:29:46;100209.60;;;0.19;70.96
41467;BME280;72625;53.700;19.958;2023-11-21T12:34:49;100208.55;;;0.29;70.38
41467;BME280;72625;53.700;19.958;2023-11-21T12:39:56;100211.24;;;0.33;70.86
41467;BME280;72625;53.700;19.958;2023-11-21T12:50:24;100219.63;;;0.41;70.69
41467;BME280;72625;53.700;19.958;2023-11-21T12:55:34;100228.31;;;0.39;70.07
41467;BME280;72625;53.700;19.958;2023-11-21T13:00:50;100235.96;;;0.42;70.79
41467;BME280;72625;53.700;19.958;2023-11-21T13:05:55;100246.11;;;0.44;70.34
41467;BME280;72625;53.700;19.958;2023-11-21T13:11:00;100254.54;;;0.45;70.28
41467;BME280;72625;53.700;19.958;2023-11-21T13:16:04;100256.46;;;0.47;70.68
41467;BME280;72625;53.700;19.958;2023-11-21T13:21:35;100263.73;;;0.49;70.73
41467;BME280;72625;53.700;19.958;2023-11-21T13:26:39;100272.48;;;0.48;70.15
41467;BME280;72625;53.700;19.958;2023-11-21T13:32:00;100280.60;;;0.47;70.48
41467;BME280;72625;53.700;19.958;2023-11-21T13:37:06;100283.34;;;0.41;69.79
41467;BME280;72625;53.700;19.958;2023-11-21T13:42:11;100289.87;;;0.37;69.91
41467;BME280;72625;53.700;19.958;2023-11-21T13:47:16;100290.41;;;0.32;70.36
41467;BME280;72625;53.700;19.958;2023-11-21T13:52:20;100296.39;;;0.28;69.75
41467;BME280;72625;53.700;19.958;2023-11-21T13:57:27;100303.62;;;0.20;69.49
41467;BME280;72625;53.700;19.958;2023-11-21T14:02:32;100311.14;;;0.15;69.72
41467;BME280;72625;53.700;19.958;2023-11-21T14:07:43;100312.63;;;0.13;70.01
41467;BME280;72625;53.700;19.958;2023-11-21T14:12:53;100324.79;;;0.07;69.50
41467;BME280;72625;53.700;19.958;2023-11-21T14:24:02;100344.52;;;-0.02;69.92
41467;BME280;72625;53.700;19.958;2023-11-21T14:29:16;100354.20;;;-0.09;69.33
41467;BME280;72625;53.700;19.958;2023-11-21T14:34:24;100360.01;;;-0.15;69.32
41467;BME280;72625;53.700;19.958;2023-11-21T14:39:27;100366.97;;;-0.19;69.33
41467;BME280;72625;53.700;19.958;2023-11-21T14:44:38;100376.10;;;-0.23;69.87
41467;BME280;72625;53.700;19.958;2023-11-21T14:49:45;100386.62;;;-0.29;69.45
41467;BME280;72625;53.700;19.958;2023-11-21T14:55:11;100389.55;;;-0.36;69.83
41467;BME280;72625;53.700;19.958;2023-11-21T15:00:28;100394.73;;;-0.40;69.74
41467;BME280;72625;53.700;19.958;2023-11-21T15:05:45;100405.48;;;-0.42;70.09
41467;BME280;72625;53.700;19.958;2023-11-21T15:10:52;100415.75;;;-0.44;70.03
41467;BME280;72625;53.700;19.958;2023-11-21T15:16:02;100430.44;;;-0.45;69.43
41467;BME280;72625;53.700;19.958;2023-11-21T15:21:11;100431.75;;;-0.46;69.24
41467;BME280;72625;53.700;19.958;2023-11-21T15:26:15;100438.94;;;-0.43;69.61
41467;BME280;72625;53.700;19.958;2023-11-21T15:31:19;100441.52;;;-0.40;69.45
41467;BME280;72625;53.700;19.958;2023-11-21T15:36:28;100447.52;;;-0.36;69.53
41467;BME280;72625;53.700;19.958;2023-11-21T15:41:34;100458.83;;;-0.32;69.27
41467;BME280;72625;53.700;19.958;2023-11-21T15:46:38;100455.97;;;-0.31;68.44
41467;BME280;72625;53.700;19.958;2023-11-21T15:52:14;100459.83;;;-0.32;69.20
41467;BME280;72625;53.700;19.958;2023-11-21T15:57:18;100464.93;;;-0.32;68.60
41467;BME280;72625;53.700;19.958;2023-11-21T16:02:21;100471.44;;;-0.32;69.52
41467;BME280;72625;53.700;19.958;2023-11-21T16:07:25;100482.42;;;-0.31;69.10
41467;BME280;72625;53.700;19.958;2023-11-21T16:12:29;100492.92;;;-0.32;69.14
41467;BME280;72625;53.700;19.958;2023-11-21T16:29:13;100506.73;;;-0.47;68.11
41467;BME280;72625;53.700;19.958;2023-11-21T16:34:29;100510.89;;;-0.50;68.77
41467;BME280;72625;53.700;19.958;2023-11-21T16:39:33;100522.25;;;-0.53;69.01
41467;BME280;72625;53.700;19.958;2023-11-21T16:44:37;100523.46;;;-0.57;68.92
41467;BME280;72625;53.700;19.958;2023-11-21T16:49:42;100524.83;;;-0.63;69.00
41467;BME280;72625;53.700;19.958;2023-11-21T16:54:56;100524.87;;;-0.72;68.81
41467;BME280;72625;53.700;19.958;2023-11-21T17:00:02;100530.31;;;-0.82;68.90
41467;BME280;72625;53.700;19.958;2023-11-21T17:05:10;100527.34;;;-0.91;69.21
41467;BME280;72625;53.700;19.958;2023-11-21T17:10:14;100532.58;;;-0.95;69.35
41467;BME280;72625;53.700;19.958;2023-11-21T17:15:19;100543.27;;;-1.01;69.28
41467;BME280;72625;53.700;19.958;2023-11-21T17:20:25;100553.50;;;-1.08;69.19
41467;BME280;72625;53.700;19.958;2023-11-21T17:25:30;100561.02;;;-1.16;69.11
41467;BME280;72625;53.700;19.958;2023-11-21T17:30:34;100561.90;;;-1.24;69.12
41467;BME280;72625;53.700;19.958;2023-11-21T17:35:41;100571.66;;;-1.30;69.12
41467;BME280;72625;53.700;19.958;2023-11-21T17:40:45;100583.42;;;-1.35;68.99
41467;BME280;72625;53.700;19.958;2023-11-21T17:45:49;100593.20;;;-1.39;69.31
41467;BME280;72625;53.700;19.958;2023-11-21T17:50:54;100591.46;;;-1.45;68.86
41467;BME280;72625;53.700;19.958;2023-11-21T17:55:58;100589.79;;;-1.50;69.04
41467;BME280;72625;53.700;19.958;2023-11-21T18:01:02;100595.76;;;-1.56;69.10
41467;BME280;72625;53.700;19.958;2023-11-21T18:06:07;100601.90;;;-1.60;69.18
41467;BME280;72625;53.700;19.958;2023-11-21T18:11:14;100607.02;;;-1.66;69.02
41467;BME280;72625;53.700;19.958;2023-11-21T18:16:18;100614.61;;;-1.70;68.60
41467;BME280;72625;53.700;19.958;2023-11-21T18:21:22;100624.35;;;-1.69;68.98
41467;BME280;72625;53.700;19.958;2023-11-21T18:26:45;100627.56;;;-1.72;68.99
41467;BME280;72625;53.700;19.958;2023-11-21T18:31:49;100636.48;;;-1.74;69.12
41467;BME280;72625;53.700;19.958;2023-11-21T18:36:53;100649.48;;;-1.79;69.06
41467;BME280;72625;53.700;19.958;2023-11-21T18:41:57;100669.23;;;-1.83;68.88
41467;BME280;72625;53.700;19.958;2023-11-21T18:47:05;100679.08;;;-1.88;68.92
41467;BME280;72625;53.700;19.958;2023-11-21T18:52:09;100684.11;;;-1.92;69.32
41467;BME280;72625;53.700;19.958;2023-11-21T18:57:14;100693.89;;;-1.94;69.43
41467;BME280;72625;53.700;19.958;2023-11-21T19:02:20;100702.33;;;-1.98;69.26
41467;BME280;72625;53.700;19.958;2023-11-21T19:07:24;100710.34;;;-2.04;69.52
41467;BME280;72625;53.700;19.958;2023-11-21T19:12:30;100713.58;;;-2.11;69.59
41467;BME280;72625;53.700;19.958;2023-11-21T19:17:35;100723.65;;;-2.13;69.81
41467;BME280;72625;53.700;19.958;2023-11-21T19:22:41;100738.43;;;-2.14;69.99
41467;BME280;72625;53.700;19.958;2023-11-21T19:27:45;100747.66;;;-2.15;69.98
41467;BME280;72625;53.700;19.958;2023-11-21T19:32:51;100757.48;;;-2.20;70.35
41467;BME280;72625;53.700;19.958;2023-11-21T19:37:55;100763.73;;;-2.24;70.24
41467;BME280;72625;53.700;19.958;2023-11-21T19:43:00;100769.83;;;-2.29;70.44
41467;BME280;72625;53.700;19.958;2023-11-21T19:48:05;100778.95;;;-2.33;70.60
41467;BME280;72625;53.700;19.958;2023-11-21T19:53:12;100794.38;;;-2.37;71.49
41467;BME280;72625;53.700;19.958;2023-11-21T19:58:15;100803.44;;;-2.40;71.34
41467;BME280;72625;53.700;19.958;2023-11-21T20:03:21;100811.24;;;-2.43;71.74
41467;BME280;72625;53.700;19.958;2023-11-21T20:08:24;100818.43;;;-2.46;73.25
41467;BME280;72625;53.700;19.958;2023-11-21T20:13:28;100822.80;;;-2.48;72.74
41467;BME280;72625;53.700;19.958;2023-11-21T20:18:32;100826.75;;;-2.51;73.26
41467;BME280;72625;53.700;19.958;2023-11-21T20:23:36;100836.42;;;-2.54;73.36
41467;BME280;72625;53.700;19.958;2023-11-21T20:34:07;100842.72;;;-2.55;73.32
41467;BME280;72625;53.700;19.958;2023-11-21T20:39:40;100845.81;;;-2.59;73.35
41467;BME280;72625;53.700;19.958;2023-11-21T20:44:56;100848.17;;;-2.61;73.54
41467;BME280;72625;53.700;19.958;2023-11-21T20:50:03;100855.17;;;-2.61;73.89
41467;BME280;72625;53.700;19.958;2023-11-21T20:55:06;100866.52;;;-2.65;74.37
41467;BME280;72625;53.700;19.958;2023-11-21T21:00:11;100864.11;;;-2.69;74.18
41467;BME280;72625;53.700;19.958;2023-11-21T21:05:17;100862.73;;;-2.74;74.30
41467;BME280;72625;53.700;19.958;2023-11-21T21:10:22;100867.33;;;-2.79;74.28
41467;BME280;72625;53.700;19.958;2023-11-21T21:15:26;100877.16;;;-2.81;74.45
41467;BME280;72625;53.700;19.958;2023-11-21T21:20:32;100887.19;;;-2.85;75.05
41467;BME280;72625;53.700;19.958;2023-11-21T21:25:36;100894.35;;;-2.89;74.53
41467;BME280;72625;53.700;19.958;2023-11-21T21:30:39;100898.97;;;-2.92;74.77
41467;BME280;72625;53.700;19.958;2023-11-21T21:35:45;100904.34;;;-2.94;74.57
41467;BME280;72625;53.700;19.958;2023-11-21T21:40:50;100901.08;;;-2.95;74.84
41467;BME280;72625;53.700;19.958;2023-11-21T21:45:55;100897.86;;;-2.98;74.83
41467;BME280;72625;53.700;19.958;2023-11-21T21:50:59;100902.92;;;-2.99;74.94
41467;BME280;72625;53.700;19.958;2023-11-21T21:56:03;100914.23;;;-2.99;75.15
41467;BME280;72625;53.700;19.958;2023-11-21T22:01:07;100920.27;;;-3.02;74.95
41467;BME280;72625;53.700;19.958;2023-11-21T22:06:11;100925.92;;;-3.04;75.32
41467;BME280;72625;53.700;19.958;2023-11-21T22:11:15;100932.38;;;-3.08;75.56
41467;BME280;72625;53.700;19.958;2023-11-21T22:16:19;100950.27;;;-3.11;75.52
41467;BME280;72625;53.700;19.958;2023-11-21T22:21:24;100957.54;;;-3.16;75.17
41467;BME280;72625;53.700;19.958;2023-11-21T22:26:32;100966.92;;;-3.16;75.44
41467;BME280;72625;53.700;19.958;2023-11-21T22:31:41;100971.83;;;-3.18;75.52
41467;BME280;72625;53.700;19.958;2023-11-21T22:36:45;100978.54;;;-3.20;75.49
41467;BME280;72625;53.700;19.958;2023-11-21T22:41:50;100987.11;;;-3.23;75.62
41467;BME280;72625;53.700;19.958;2023-11-21T22:46:58;100996.46;;;-3.28;75.88
41467;BME280;72625;53.700;19.958;2023-11-21T22:52:05;100997.02;;;-3.31;76.28
41467;BME280;72625;53.700;19.958;2023-11-21T22:57:08;100997.75;;;-3.33;75.97
41467;BME280;72625;53.700;19.958;2023-11-21T23:02:12;100999.89;;;-3.36;76.39
41467;BME280;72625;53.700;19.958;2023-11-21T23:07:16;101006.80;;;-3.38;76.54
41467;BME280;72625;53.700;19.958;2023-11-21T23:12:20;101009.70;;;-3.39;76.40
41467;BME280;72625;53.700;19.958;2023-11-21T23:17:24;101007.81;;;-3.40;76.70
41467;BME280;72625;53.700;19.958;2023-11-21T23:22:28;101009.52;;;-3.43;76.40
41467;BME280;72625;53.700;19.958;2023-11-21T23:27:31;101003.67;;;-3.46;76.58
41467;BME280;72625;53.700;19.958;2023-11-21T23:32:35;100996.23;;;-3.49;76.66
41467;BME280;72625;53.700;19.958;2023-11-21T23:37:39;100998.85;;;-3.52;76.82
41467;BME280;72625;53.700;19.958;2023-11-21T23:42:43;100998.48;;;-3.55;77.19
41467;BME280;72625;53.700;19.958;2023-11-21T23:47:47;100996.21;;;-3.59;77.10
41467;BME280;72625;53.700;19.958;2023-11-21T23:52:51;100993.29;;;-3.64;77.04
41467;BME280;72625;53.700;19.958;2023-11-21T23:57:55;100989.23;;;-3.65;77.20
